createdAt,value
2023-04-18T00:01:40.162Z,16.23
2023-04-18T00:04:07.976Z,14.38
2023-04-18T00:06:37.494Z,14.10
2023-04-18T00:09:08.798Z,17.90
2023-04-18T00:11:39.808Z,15.07
2023-04-18T00:14:11.299Z,20.02
2023-04-18T00:16:38.844Z,17.23
2023-04-18T00:21:54.473Z,16.60
2023-04-18T00:24:22.994Z,16.40
2023-04-18T00:26:54.037Z,14.77
2023-04-18T00:29:24.765Z,15.23
2023-04-18T00:34:25.820Z,14.43
2023-04-18T00:36:53.060Z,13.23
2023-04-18T00:39:20.097Z,16.60
2023-04-18T00:41:46.881Z,14.18
2023-04-18T00:44:15.824Z,14.40
2023-04-18T00:46:46.354Z,16.83
2023-04-18T00:49:15.930Z,16.42
2023-04-18T00:51:44.585Z,16.88
2023-04-18T00:54:13.769Z,17.45
2023-04-18T01:02:15.613Z,18.88
2023-04-18T01:04:48.250Z,16.20
2023-04-18T01:07:19.540Z,15.73
2023-04-18T01:09:48.178Z,17.58
2023-04-18T01:12:17.332Z,18.08
2023-04-18T01:14:50.606Z,15.52
2023-04-18T01:17:20.375Z,20.13
2023-04-18T01:19:48.587Z,16.27
2023-04-18T01:24:59.265Z,17.50
2023-04-18T01:27:28.162Z,16.25
2023-04-18T01:29:55.984Z,18.15
2023-04-18T01:32:32.399Z,16.95
2023-04-18T01:35:01.776Z,18.23
2023-04-18T01:37:30.177Z,19.92
2023-04-18T01:39:58.985Z,15.80
2023-04-18T01:42:30.504Z,15.98
2023-04-18T01:47:46.410Z,19.90
2023-04-18T01:50:19.945Z,18.88
2023-04-18T01:52:57.718Z,16.25
2023-04-18T01:55:27.609Z,20.13
2023-04-18T01:58:06.987Z,19.15
2023-04-18T02:00:38.551Z,17.10
2023-04-18T02:03:07.895Z,17.48
2023-04-18T02:05:38.430Z,18.77
2023-04-18T02:08:05.539Z,16.20
2023-04-18T02:10:44.666Z,18.73
2023-04-18T02:13:15.615Z,17.45
2023-04-18T02:15:51.155Z,18.20
2023-04-18T02:18:24.820Z,20.65
2023-04-18T02:21:03.731Z,19.25
2023-04-18T02:23:31.812Z,18.00
2023-04-18T02:25:59.999Z,20.90
2023-04-18T02:28:28.404Z,16.88
2023-04-18T02:30:56.922Z,19.38
2023-04-18T02:36:18.434Z,22.50
2023-04-18T02:38:48.874Z,19.23
2023-04-18T02:41:19.580Z,20.10
2023-04-18T02:43:46.855Z,18.08
2023-04-18T02:46:16.453Z,18.35
2023-04-18T02:48:46.643Z,18.52
2023-04-18T02:51:15.812Z,26.85
2023-04-18T02:53:45.566Z,19.83
2023-04-18T02:56:25.992Z,19.97
2023-04-18T02:59:02.186Z,20.52
2023-04-18T03:01:34.633Z,22.20
2023-04-18T03:07:02.933Z,21.70
2023-04-18T03:09:35.616Z,19.75
2023-04-18T03:12:11.510Z,21.40
2023-04-18T03:14:40.119Z,22.80
2023-04-18T03:17:08.876Z,21.33
2023-04-18T03:19:46.607Z,20.02
2023-04-18T03:22:17.495Z,28.02
2023-04-18T03:24:45.530Z,23.58
2023-04-18T03:27:19.217Z,24.48
2023-04-18T03:29:46.303Z,21.52
2023-04-18T03:32:18.860Z,24.27
2023-04-18T03:34:47.618Z,21.63
2023-04-18T03:37:19.417Z,27.80
2023-04-18T03:39:49.424Z,24.52
2023-04-18T03:42:17.174Z,28.17
2023-04-18T03:44:44.277Z,26.30
2023-04-18T03:47:18.616Z,25.15
2023-04-18T03:49:45.915Z,23.55
2023-04-18T03:52:15.174Z,26.08
2023-04-18T03:54:47.483Z,25.27
2023-04-18T03:57:14.626Z,26.27
2023-04-18T03:59:43.909Z,26.90
2023-04-18T04:02:13.983Z,24.80
2023-04-18T04:04:49.182Z,28.50
2023-04-18T04:07:18.851Z,24.20
2023-04-18T04:09:49.024Z,23.92
2023-04-18T04:12:15.830Z,27.05
2023-04-18T04:14:51.445Z,26.08
2023-04-18T04:17:19.001Z,28.15
2023-04-18T04:22:30.292Z,25.95
2023-04-18T04:24:58.284Z,26.73
2023-04-18T04:27:33.691Z,30.08
2023-04-18T04:30:04.459Z,26.35
2023-04-18T04:32:42.893Z,28.10
2023-04-18T04:35:17.337Z,27.63
2023-04-18T04:37:50.284Z,27.75
2023-04-18T04:40:22.670Z,26.00
2023-04-18T04:43:12.654Z,27.90
2023-04-18T04:45:57.069Z,24.33
2023-04-18T04:48:32.834Z,26.30
2023-04-18T04:51:03.276Z,27.25
2023-04-18T04:53:33.036Z,24.88
2023-04-18T04:56:14.440Z,27.50
2023-04-18T04:58:43.250Z,25.70
2023-04-18T05:01:30.628Z,25.90
2023-04-18T05:04:08.704Z,26.10
2023-04-18T05:09:21.735Z,24.80
2023-04-18T05:11:50.236Z,23.13
2023-04-18T05:14:18.478Z,25.73
2023-04-18T05:17:13.782Z,26.17
2023-04-18T05:19:50.428Z,23.40
2023-04-18T05:25:10.251Z,24.08
2023-04-18T05:36:17.442Z,21.42
2023-04-18T05:38:56.364Z,20.40
2023-04-18T05:41:29.116Z,21.77
2023-04-18T05:44:05.643Z,21.95
2023-04-18T05:46:45.377Z,22.15
2023-04-18T05:49:14.987Z,20.20
2023-04-18T05:55:00.336Z,21.17
2023-04-18T06:01:15.558Z,19.63
2023-04-18T06:03:46.929Z,18.95
2023-04-18T06:06:19.988Z,20.58
2023-04-18T06:18:15.400Z,20.25
2023-04-18T06:21:01.972Z,17.98
2023-04-18T06:29:14.473Z,19.08
2023-04-18T06:37:13.572Z,19.42
2023-04-18T06:39:44.504Z,19.92
2023-04-18T06:42:29.771Z,17.75
2023-04-18T06:45:11.066Z,19.00
2023-04-18T06:53:18.072Z,17.90
2023-04-18T06:56:07.260Z,19.75
2023-04-18T06:58:36.649Z,19.00
2023-04-18T07:04:07.233Z,18.00
2023-04-18T07:06:36.604Z,19.30
2023-04-18T07:09:14.958Z,16.60
2023-04-18T07:11:54.004Z,16.80
2023-04-18T07:29:41.209Z,17.58
2023-04-18T07:32:32.960Z,15.05
2023-04-18T07:36:00.993Z,12.32
2023-04-18T07:44:11.571Z,14.85
2023-04-18T07:49:43.819Z,15.27
2023-04-18T07:55:37.566Z,12.27
2023-04-18T08:07:03.211Z,11.27
2023-04-18T08:09:36.826Z,11.63
2023-04-18T08:12:06.286Z,10.73
2023-04-18T08:14:34.894Z,12.38
2023-04-18T08:17:43.476Z,10.98
2023-04-18T08:20:19.450Z,11.30
2023-04-18T08:23:05.618Z,13.80
2023-04-18T08:25:36.189Z,12.18
2023-04-18T08:28:04.844Z,11.55
2023-04-18T08:30:33.942Z,14.02
2023-04-18T08:35:55.165Z,11.50
2023-04-18T08:38:24.796Z,12.18
2023-04-18T08:40:54.884Z,11.50
2023-04-18T08:48:55.836Z,11.48
2023-04-18T08:54:10.250Z,13.07
2023-04-18T08:56:38.007Z,10.88
2023-04-18T09:02:04.640Z,11.55
2023-04-18T09:04:37.626Z,13.68
2023-04-18T09:07:17.408Z,12.68
2023-04-18T09:09:50.632Z,11.38
2023-04-18T09:12:25.817Z,13.25
2023-04-18T09:14:58.000Z,12.60
2023-04-18T09:17:44.736Z,11.75
2023-04-18T09:20:17.603Z,12.75
2023-04-18T09:23:02.526Z,11.98
2023-04-18T09:25:46.273Z,12.98
2023-04-18T09:28:37.056Z,9.70
2023-04-18T09:34:10.948Z,10.73
2023-04-18T09:39:31.362Z,10.35
2023-04-18T09:42:06.121Z,10.38
2023-04-18T09:45:09.023Z,9.98
2023-04-18T09:47:40.698Z,9.65
2023-04-18T09:50:11.320Z,10.20
2023-04-18T09:52:43.589Z,12.05
2023-04-18T09:55:26.162Z,8.93
2023-04-18T09:58:00.235Z,10.75
2023-04-18T10:00:30.727Z,10.80
2023-04-18T10:03:04.292Z,10.23
2023-04-18T10:05:38.710Z,10.50
2023-04-18T10:08:15.838Z,11.52
2023-04-18T10:10:48.182Z,9.20
2023-04-18T10:16:21.615Z,8.23
2023-04-18T10:18:52.301Z,10.35
2023-04-18T10:21:22.222Z,10.95
2023-04-18T10:23:57.989Z,9.03
2023-04-18T10:26:50.472Z,9.32
2023-04-18T10:29:19.814Z,9.55
2023-04-18T10:32:00.897Z,7.38
2023-04-18T10:34:32.369Z,9.30
2023-04-18T10:37:17.996Z,8.98
2023-04-18T10:39:53.948Z,6.88
2023-04-18T10:42:54.219Z,8.35
2023-04-18T10:48:34.360Z,8.52
2023-04-18T10:51:18.008Z,8.65
2023-04-18T10:53:54.334Z,8.77
2023-04-18T10:56:31.295Z,9.07
2023-04-18T10:59:11.524Z,8.20
2023-04-18T11:07:17.290Z,9.57
2023-04-18T11:09:58.949Z,8.13
2023-04-18T11:12:35.497Z,9.50
2023-04-18T11:15:11.229Z,10.48
2023-04-18T11:17:42.926Z,8.57
2023-04-18T11:20:14.456Z,9.75
2023-04-18T11:25:39.577Z,8.90
2023-04-18T11:46:05.566Z,6.97
2023-04-18T11:57:56.758Z,5.97
2023-04-18T12:03:30.031Z,5.65
2023-04-18T12:14:29.590Z,6.03
2023-04-18T12:31:58.268Z,6.82
2023-04-18T12:52:17.394Z,5.60
2023-04-18T13:04:13.156Z,5.75
2023-04-18T13:09:52.703Z,4.72
2023-04-18T13:12:20.034Z,5.18
2023-04-18T13:14:53.916Z,5.28
2023-04-18T13:17:27.437Z,4.90
2023-04-18T13:20:01.951Z,6.97
2023-04-18T13:22:31.335Z,5.15
2023-04-18T13:25:04.142Z,5.00
2023-04-18T13:27:38.992Z,5.43
2023-04-18T13:30:10.120Z,4.75
2023-04-18T13:32:40.449Z,4.53
2023-04-18T13:35:12.561Z,6.13
2023-04-18T13:49:51.376Z,6.70
2023-04-18T13:52:27.529Z,6.57
2023-04-18T13:55:05.937Z,5.00
2023-04-18T13:57:36.536Z,5.10
2023-04-18T14:02:45.585Z,5.00
2023-04-18T14:08:02.646Z,6.18
2023-04-18T14:10:31.113Z,7.13
2023-04-18T14:13:02.856Z,6.70
2023-04-18T14:15:32.135Z,6.45
2023-04-18T14:17:59.618Z,7.95
2023-04-18T14:45:29.690Z,13.57
2023-04-18T14:53:56.772Z,11.95
2023-04-18T15:16:27.486Z,11.50
2023-04-18T15:19:01.441Z,11.35
2023-04-18T15:33:50.108Z,12.00
2023-04-18T15:36:29.276Z,13.70
2023-04-18T15:39:04.512Z,11.25
2023-04-18T15:41:36.234Z,12.68
2023-04-18T15:49:59.912Z,13.27
2023-04-18T15:52:27.171Z,12.55
2023-04-18T16:07:19.766Z,11.82
2023-04-18T16:16:07.937Z,13.60
2023-04-18T16:18:45.696Z,12.02
2023-04-18T16:24:01.287Z,12.77
2023-04-18T16:26:34.792Z,10.43
2023-04-18T16:34:33.526Z,10.32
2023-04-18T16:51:03.882Z,9.90
2023-04-18T16:53:43.513Z,11.77
2023-04-18T16:56:14.338Z,10.43
2023-04-18T16:58:53.728Z,10.43
2023-04-18T17:01:30.120Z,11.25
2023-04-18T17:04:06.841Z,10.98
2023-04-18T17:06:36.053Z,8.70
2023-04-18T17:09:25.926Z,11.27
2023-04-18T17:14:45.756Z,8.52
2023-04-18T17:17:32.394Z,9.85
2023-04-18T17:26:15.212Z,11.70
2023-04-18T17:29:03.822Z,11.35
2023-04-18T17:36:57.478Z,12.80
2023-04-18T17:45:30.262Z,10.25
2023-04-18T17:59:12.534Z,11.18
2023-04-18T18:08:31.875Z,9.90
2023-04-18T18:17:15.781Z,11.02
2023-04-18T18:25:56.432Z,12.32
2023-04-18T18:31:51.948Z,11.80
2023-04-18T18:34:49.814Z,12.68
2023-04-18T18:45:41.272Z,12.65
2023-04-18T18:48:11.209Z,13.90
2023-04-18T18:59:09.618Z,13.48
2023-04-18T19:02:04.448Z,13.25
2023-04-18T19:10:01.224Z,13.60
2023-04-18T19:13:20.530Z,14.10
2023-04-18T19:18:51.771Z,14.77
2023-04-18T19:21:29.274Z,12.20
2023-04-18T19:26:53.681Z,13.77
2023-04-18T19:29:26.775Z,12.55
2023-04-18T19:32:09.238Z,13.45
2023-04-18T19:45:05.658Z,13.35
2023-04-18T19:52:12.250Z,12.95
2023-04-18T21:04:11.001Z,12.45
2023-04-18T21:15:17.901Z,12.07
2023-04-18T21:17:52.973Z,11.20
2023-04-18T21:43:11.984Z,8.13
2023-04-18T21:45:44.850Z,9.45
2023-04-18T21:56:45.957Z,10.32
2023-04-18T21:59:38.876Z,9.77
2023-04-18T22:02:13.567Z,9.20
2023-04-18T22:04:43.113Z,8.75
2023-04-18T22:07:25.109Z,9.05
2023-04-18T22:13:08.242Z,11.55
2023-04-18T22:18:32.173Z,10.15
2023-04-18T22:24:10.509Z,9.07
2023-04-18T22:26:40.307Z,8.45
2023-04-18T22:29:35.305Z,10.55
2023-04-18T22:38:05.375Z,9.20
2023-04-18T22:43:29.903Z,7.10
2023-04-18T22:46:08.578Z,7.72
2023-04-18T22:51:54.672Z,7.97
2023-04-18T22:57:09.823Z,7.97
2023-04-18T23:02:21.153Z,7.25
2023-04-18T23:04:49.760Z,8.75
2023-04-18T23:07:17.734Z,8.13
2023-04-18T23:09:46.957Z,7.35
2023-04-18T23:12:16.295Z,6.80
2023-04-18T23:17:27.032Z,6.60
2023-04-18T23:19:57.695Z,7.00
2023-04-18T23:30:20.988Z,7.78
2023-04-18T23:32:48.000Z,7.60
2023-04-18T23:35:24.094Z,8.48
2023-04-18T23:40:33.253Z,7.38
2023-04-18T23:43:03.303Z,7.70
2023-04-18T23:45:31.899Z,7.90
2023-04-18T23:48:00.233Z,7.95
2023-04-18T23:50:31.056Z,8.35
2023-04-18T23:55:29.846Z,6.80
2023-04-18T23:57:58.350Z,8.40
